sensor_id;sensor_type;location;lat;lon;timestamp;temperature;humidity
4787;DHT22;62338;48.832;9.422;2023-08-08T00:00:16;11.70;99.90
4787;DHT22;62338;48.832;9.422;2023-08-08T00:02:17;11.60;99.90
4787;DHT22;62338;48.832;9.422;2023-08-08T00:04:19;11.60;99.90
4787;DHT22;62338;48.832;9.422;2023-08-08T00:06:21;11.60;99.90
4787;DHT22;62338;48.832;9.422;2023-08-08T00:08:23;11.60;99.90
4787;DHT22;62338;48.832;9.422;2023-08-08T00:10:25;11.50;99.90
4787;DHT22;62338;48.832;9.422;2023-08-08T00:12:26;11.50;99.90
4787;DHT22;62338;48.832;9.422;2023-08-08T00:14:28;11.50;99.90
4787;DHT22;62338;48.832;9.422;2023-08-08T00:16:30;11.50;99.90
4787;DHT22;62338;48.832;9.422;2023-08-08T00:18:32;11.50;99.90
4787;DHT22;62338;48.832;9.422;2023-08-08T00:20:34;11.50;99.90
4787;DHT22;62338;48.832;9.422;2023-08-08T00:22:35;11.50;99.90
4787;DHT22;62338;48.832;9.422;2023-08-08T00:24:37;11.50;99.90
4787;DHT22;62338;48.832;9.422;2023-08-08T00:26:39;11.60;99.90
4787;DHT22;62338;48.832;9.422;2023-08-08T00:28:41;11.60;99.90
4787;DHT22;62338;48.832;9.422;2023-08-08T00:30:43;11.60;99.90
4787;DHT22;62338;48.832;9.422;2023-08-08T00:32:45;11.70;99.90
4787;DHT22;62338;48.832;9.422;2023-08-08T00:34:47;11.70;99.90
4787;DHT22;62338;48.832;9.422;2023-08-08T00:36:48;11.80;99.90
4787;DHT22;62338;48.832;9.422;2023-08-08T00:38:50;11.80;99.90
4787;DHT22;62338;48.832;9.422;2023-08-08T00:40:52;11.90;99.90
4787;DHT22;62338;48.832;9.422;2023-08-08T00:42:54;11.90;99.90
4787;DHT22;62338;48.832;9.422;2023-08-08T00:44:55;11.90;99.90
4787;DHT22;62338;48.832;9.422;2023-08-08T00:47:03;11.90;99.90
4787;DHT22;62338;48.832;9.422;2023-08-08T00:49:05;12.00;99.90
4787;DHT22;62338;48.832;9.422;2023-08-08T00:51:07;12.00;99.90
4787;DHT22;62338;48.832;9.422;2023-08-08T00:53:09;12.10;99.90
4787;DHT22;62338;48.832;9.422;2023-08-08T00:55:11;12.10;99.90
4787;DHT22;62338;48.832;9.422;2023-08-08T00:57:13;12.20;99.90
4787;DHT22;62338;48.832;9.422;2023-08-08T00:59:16;12.20;99.90
4787;DHT22;62338;48.832;9.422;2023-08-08T01:01:20;12.20;99.90
4787;DHT22;62338;48.832;9.422;2023-08-08T01:03:21;12.20;99.90
4787;DHT22;62338;48.832;9.422;2023-08-08T01:05:24;12.20;99.90
4787;DHT22;62338;48.832;9.422;2023-08-08T01:07:30;12.20;99.90
4787;DHT22;62338;48.832;9.422;2023-08-08T01:09:44;12.20;99.90
4787;DHT22;62338;48.832;9.422;2023-08-08T01:11:48;12.20;99.90
4787;DHT22;62338;48.832;9.422;2023-08-08T01:13:52;12.20;99.90
4787;DHT22;62338;48.832;9.422;2023-08-08T01:15:56;12.20;99.90
4787;DHT22;62338;48.832;9.422;2023-08-08T01:17:58;12.20;99.90
4787;DHT22;62338;48.832;9.422;2023-08-08T01:20:04;12.20;99.90
4787;DHT22;62338;48.832;9.422;2023-08-08T01:22:13;12.10;99.90
4787;DHT22;62338;48.832;9.422;2023-08-08T01:24:21;12.10;99.90
4787;DHT22;62338;48.832;9.422;2023-08-08T01:26:23;12.10;99.90
4787;DHT22;62338;48.832;9.422;2023-08-08T01:28:26;12.10;99.90
4787;DHT22;62338;48.832;9.422;2023-08-08T01:30:28;12.10;99.90
4787;DHT22;62338;48.832;9.422;2023-08-08T01:32:30;12.10;99.90
4787;DHT22;62338;48.832;9.422;2023-08-08T01:34:31;12.10;99.90
4787;DHT22;62338;48.832;9.422;2023-08-08T01:38:48;12.20;99.90
4787;DHT22;62338;48.832;9.422;2023-08-08T01:40:55;12.20;99.90
4787;DHT22;62338;48.832;9.422;2023-08-08T01:42:58;12.20;99.90
4787;DHT22;62338;48.832;9.422;2023-08-08T01:45:00;12.20;99.90
4787;DHT22;62338;48.832;9.422;2023-08-08T01:47:02;12.20;99.90
4787;DHT22;62338;48.832;9.422;2023-08-08T01:49:04;12.20;99.90
4787;DHT22;62338;48.832;9.422;2023-08-08T01:51:06;12.10;99.90
4787;DHT22;62338;48.832;9.422;2023-08-08T01:53:07;12.20;99.90
4787;DHT22;62338;48.832;9.422;2023-08-08T01:55:09;12.10;99.90
4787;DHT22;62338;48.832;9.422;2023-08-08T01:57:11;12.10;99.90
4787;DHT22;62338;48.832;9.422;2023-08-08T01:59:13;12.10;99.90
4787;DHT22;62338;48.832;9.422;2023-08-08T02:01:16;12.10;99.90
4787;DHT22;62338;48.832;9.422;2023-08-08T02:03:18;12.10;99.90
4787;DHT22;62338;48.832;9.422;2023-08-08T02:05:20;12.10;99.90
4787;DHT22;62338;48.832;9.422;2023-08-08T02:07:22;12.20;99.90
4787;DHT22;62338;48.832;9.422;2023-08-08T02:09:24;12.20;99.90
4787;DHT22;62338;48.832;9.422;2023-08-08T02:11:26;12.20;99.90
4787;DHT22;62338;48.832;9.422;2023-08-08T02:13:27;12.10;99.90
4787;DHT22;62338;48.832;9.422;2023-08-08T02:15:29;12.10;99.90
4787;DHT22;62338;48.832;9.422;2023-08-08T02:17:31;12.10;99.90
4787;DHT22;62338;48.832;9.422;2023-08-08T02:19:33;12.10;99.90
4787;DHT22;62338;48.832;9.422;2023-08-08T02:21:35;12.10;99.90
4787;DHT22;62338;48.832;9.422;2023-08-08T02:23:37;12.10;99.90
4787;DHT22;62338;48.832;9.422;2023-08-08T02:25:38;12.10;99.90
4787;DHT22;62338;48.832;9.422;2023-08-08T02:27:40;12.10;99.90
4787;DHT22;62338;48.832;9.422;2023-08-08T02:29:42;12.20;99.90
4787;DHT22;62338;48.832;9.422;2023-08-08T02:31:44;12.20;99.90
4787;DHT22;62338;48.832;9.422;2023-08-08T02:33:49;12.20;99.90
4787;DHT22;62338;48.832;9.422;2023-08-08T02:35:54;12.20;99.90
4787;DHT22;62338;48.832;9.422;2023-08-08T02:37:56;12.30;99.90
4787;DHT22;62338;48.832;9.422;2023-08-08T02:39:58;12.30;99.90
4787;DHT22;62338;48.832;9.422;2023-08-08T02:42:00;12.30;99.90
4787;DHT22;62338;48.832;9.422;2023-08-08T02:44:02;12.30;99.90
4787;DHT22;62338;48.832;9.422;2023-08-08T02:46:04;12.30;99.90
4787;DHT22;62338;48.832;9.422;2023-08-08T02:48:06;12.20;99.90
4787;DHT22;62338;48.832;9.422;2023-08-08T02:50:08;12.20;99.90
4787;DHT22;62338;48.832;9.422;2023-08-08T02:52:10;12.20;99.90
4787;DHT22;62338;48.832;9.422;2023-08-08T02:54:11;12.20;99.90
4787;DHT22;62338;48.832;9.422;2023-08-08T02:56:13;12.10;99.90
4787;DHT22;62338;48.832;9.422;2023-08-08T02:58:15;12.10;99.90
4787;DHT22;62338;48.832;9.422;2023-08-08T03:00:17;12.10;99.90
4787;DHT22;62338;48.832;9.422;2023-08-08T03:02:19;12.10;99.90
4787;DHT22;62338;48.832;9.422;2023-08-08T03:04:21;12.00;99.90
4787;DHT22;62338;48.832;9.422;2023-08-08T03:06:22;12.00;99.90
4787;DHT22;62338;48.832;9.422;2023-08-08T03:08:24;12.00;99.90
4787;DHT22;62338;48.832;9.422;2023-08-08T03:10:26;12.00;99.90
4787;DHT22;62338;48.832;9.422;2023-08-08T03:12:27;12.00;99.90
4787;DHT22;62338;48.832;9.422;2023-08-08T03:14:29;11.90;99.90
4787;DHT22;62338;48.832;9.422;2023-08-08T03:16:31;11.90;99.90
4787;DHT22;62338;48.832;9.422;2023-08-08T03:18:33;11.80;99.90
4787;DHT22;62338;48.832;9.422;2023-08-08T03:20:35;11.80;99.90
4787;DHT22;62338;48.832;9.422;2023-08-08T03:22:37;11.70;99.90
4787;DHT22;62338;48.832;9.422;2023-08-08T03:24:39;11.60;99.90
4787;DHT22;62338;48.832;9.422;2023-08-08T03:26:40;11.60;99.90
4787;DHT22;62338;48.832;9.422;2023-08-08T03:28:42;11.60;99.90
4787;DHT22;62338;48.832;9.422;2023-08-08T03:30:44;11.50;99.90
4787;DHT22;62338;48.832;9.422;2023-08-08T03:32:46;11.40;99.90
4787;DHT22;62338;48.832;9.422;2023-08-08T03:34:48;11.50;99.90
4787;DHT22;62338;48.832;9.422;2023-08-08T03:36:50;11.40;99.90
4787;DHT22;62338;48.832;9.422;2023-08-08T03:38:52;11.30;99.90
4787;DHT22;62338;48.832;9.422;2023-08-08T03:40:54;11.30;99.90
4787;DHT22;62338;48.832;9.422;2023-08-08T03:42:55;11.30;99.90
4787;DHT22;62338;48.832;9.422;2023-08-08T03:44:57;11.30;99.90
4787;DHT22;62338;48.832;9.422;2023-08-08T03:46:59;11.30;99.90
4787;DHT22;62338;48.832;9.422;2023-08-08T03:49:18;11.30;99.90
4787;DHT22;62338;48.832;9.422;2023-08-08T03:51:20;11.40;99.90
4787;DHT22;62338;48.832;9.422;2023-08-08T03:53:22;11.40;99.90
4787;DHT22;62338;48.832;9.422;2023-08-08T03:55:24;11.50;99.90
4787;DHT22;62338;48.832;9.422;2023-08-08T03:57:25;11.40;99.90
4787;DHT22;62338;48.832;9.422;2023-08-08T03:59:27;11.50;99.90
4787;DHT22;62338;48.832;9.422;2023-08-08T04:01:29;11.60;99.90
4787;DHT22;62338;48.832;9.422;2023-08-08T04:03:31;11.70;99.90
4787;DHT22;62338;48.832;9.422;2023-08-08T04:05:33;11.90;99.90
4787;DHT22;62338;48.832;9.422;2023-08-08T04:07:35;11.90;99.90
4787;DHT22;62338;48.832;9.422;2023-08-08T04:09:37;12.00;99.90
4787;DHT22;62338;48.832;9.422;2023-08-08T04:11:38;12.10;99.90
4787;DHT22;62338;48.832;9.422;2023-08-08T04:13:40;12.10;99.90
4787;DHT22;62338;48.832;9.422;2023-08-08T04:15:42;12.20;99.90
4787;DHT22;62338;48.832;9.422;2023-08-08T04:17:43;12.20;99.90
4787;DHT22;62338;48.832;9.422;2023-08-08T04:19:45;12.20;99.90
4787;DHT22;62338;48.832;9.422;2023-08-08T04:21:47;12.20;99.90
4787;DHT22;62338;48.832;9.422;2023-08-08T04:23:49;12.30;99.90
4787;DHT22;62338;48.832;9.422;2023-08-08T04:25:51;12.30;99.90
4787;DHT22;62338;48.832;9.422;2023-08-08T04:27:52;12.30;99.90
4787;DHT22;62338;48.832;9.422;2023-08-08T04:29:54;12.40;99.90
4787;DHT22;62338;48.832;9.422;2023-08-08T04:31:56;12.40;99.90
4787;DHT22;62338;48.832;9.422;2023-08-08T04:33:59;12.50;99.90
4787;DHT22;62338;48.832;9.422;2023-08-08T04:36:03;12.40;99.90
4787;DHT22;62338;48.832;9.422;2023-08-08T04:38:05;12.40;99.90
4787;DHT22;62338;48.832;9.422;2023-08-08T04:40:07;12.50;99.90
4787;DHT22;62338;48.832;9.422;2023-08-08T04:42:10;12.50;99.90
4787;DHT22;62338;48.832;9.422;2023-08-08T04:44:12;12.50;99.90
4787;DHT22;62338;48.832;9.422;2023-08-08T04:46:14;12.50;99.90
4787;DHT22;62338;48.832;9.422;2023-08-08T04:48:15;12.50;99.90
4787;DHT22;62338;48.832;9.422;2023-08-08T04:50:17;12.50;99.90
4787;DHT22;62338;48.832;9.422;2023-08-08T04:52:19;12.50;99.90
4787;DHT22;62338;48.832;9.422;2023-08-08T04:54:20;12.40;99.90
4787;DHT22;62338;48.832;9.422;2023-08-08T04:56:22;12.30;99.90
4787;DHT22;62338;48.832;9.422;2023-08-08T04:58:24;12.30;99.90
4787;DHT22;62338;48.832;9.422;2023-08-08T05:00:26;12.30;99.90
4787;DHT22;62338;48.832;9.422;2023-08-08T05:02:28;12.30;99.90
4787;DHT22;62338;48.832;9.422;2023-08-08T05:04:31;12.20;99.90
4787;DHT22;62338;48.832;9.422;2023-08-08T05:06:33;12.20;99.90
4787;DHT22;62338;48.832;9.422;2023-08-08T05:08:35;12.30;99.90
4787;DHT22;62338;48.832;9.422;2023-08-08T05:10:36;12.40;99.90
4787;DHT22;62338;48.832;9.422;2023-08-08T05:12:39;12.50;99.90
4787;DHT22;62338;48.832;9.422;2023-08-08T05:14:40;12.60;99.90
4787;DHT22;62338;48.832;9.422;2023-08-08T05:16:42;12.70;99.90
4787;DHT22;62338;48.832;9.422;2023-08-08T05:18:44;12.70;99.90
4787;DHT22;62338;48.832;9.422;2023-08-08T05:20:46;12.60;99.90
4787;DHT22;62338;48.832;9.422;2023-08-08T05:22:48;12.60;99.90
4787;DHT22;62338;48.832;9.422;2023-08-08T05:24:50;12.50;99.90
4787;DHT22;62338;48.832;9.422;2023-08-08T05:26:52;12.50;99.90
4787;DHT22;62338;48.832;9.422;2023-08-08T05:28:54;12.40;99.90
4787;DHT22;62338;48.832;9.422;2023-08-08T05:30:56;12.40;99.90
4787;DHT22;62338;48.832;9.422;2023-08-08T05:32:58;12.40;99.90
4787;DHT22;62338;48.832;9.422;2023-08-08T05:35:00;12.40;99.90
4787;DHT22;62338;48.832;9.422;2023-08-08T05:37:02;12.50;99.90
4787;DHT22;62338;48.832;9.422;2023-08-08T05:39:17;12.60;99.90
4787;DHT22;62338;48.832;9.422;2023-08-08T05:41:19;12.70;99.90
4787;DHT22;62338;48.832;9.422;2023-08-08T05:43:21;12.70;99.90
4787;DHT22;62338;48.832;9.422;2023-08-08T05:45:23;12.80;99.90
4787;DHT22;62338;48.832;9.422;2023-08-08T05:47:24;12.90;99.90
4787;DHT22;62338;48.832;9.422;2023-08-08T05:49:27;12.90;99.90
4787;DHT22;62338;48.832;9.422;2023-08-08T05:51:28;13.00;99.90
4787;DHT22;62338;48.832;9.422;2023-08-08T05:53:33;13.00;99.90
4787;DHT22;62338;48.832;9.422;2023-08-08T05:55:35;13.00;99.90
4787;DHT22;62338;48.832;9.422;2023-08-08T05:57:37;13.00;99.90
4787;DHT22;62338;48.832;9.422;2023-08-08T05:59:39;13.10;99.90
4787;DHT22;62338;48.832;9.422;2023-08-08T06:01:41;13.20;99.90
4787;DHT22;62338;48.832;9.422;2023-08-08T06:03:43;13.20;99.90
4787;DHT22;62338;48.832;9.422;2023-08-08T06:05:45;13.20;99.90
4787;DHT22;62338;48.832;9.422;2023-08-08T06:07:46;13.20;99.90
4787;DHT22;62338;48.832;9.422;2023-08-08T06:09:48;13.30;99.90
4787;DHT22;62338;48.832;9.422;2023-08-08T06:11:50;13.30;99.90
4787;DHT22;62338;48.832;9.422;2023-08-08T06:13:52;13.30;99.90
4787;DHT22;62338;48.832;9.422;2023-08-08T06:15:53;13.30;99.90
4787;DHT22;62338;48.832;9.422;2023-08-08T06:17:55;13.30;99.90
4787;DHT22;62338;48.832;9.422;2023-08-08T06:19:57;13.40;99.90
4787;DHT22;62338;48.832;9.422;2023-08-08T06:21:59;13.40;99.90
4787;DHT22;62338;48.832;9.422;2023-08-08T06:24:01;13.50;99.90
4787;DHT22;62338;48.832;9.422;2023-08-08T06:26:03;13.60;99.90
4787;DHT22;62338;48.832;9.422;2023-08-08T06:28:05;13.60;99.90
4787;DHT22;62338;48.832;9.422;2023-08-08T06:30:08;13.70;99.90
4787;DHT22;62338;48.832;9.422;2023-08-08T06:32:10;13.70;99.90
4787;DHT22;62338;48.832;9.422;2023-08-08T06:34:12;13.80;99.90
4787;DHT22;62338;48.832;9.422;2023-08-08T06:36:14;13.90;99.90
4787;DHT22;62338;48.832;9.422;2023-08-08T06:38:15;14.00;99.90
4787;DHT22;62338;48.832;9.422;2023-08-08T06:40:17;14.10;99.90
4787;DHT22;62338;48.832;9.422;2023-08-08T06:42:19;14.20;99.90
4787;DHT22;62338;48.832;9.422;2023-08-08T06:44:21;14.40;99.90
4787;DHT22;62338;48.832;9.422;2023-08-08T06:46:22;14.60;99.90
4787;DHT22;62338;48.832;9.422;2023-08-08T06:48:26;14.80;99.90
4787;DHT22;62338;48.832;9.422;2023-08-08T06:50:27;14.90;99.90
4787;DHT22;62338;48.832;9.422;2023-08-08T06:52:29;15.20;99.90
4787;DHT22;62338;48.832;9.422;2023-08-08T06:54:32;15.40;99.90
4787;DHT22;62338;48.832;9.422;2023-08-08T06:56:34;15.80;99.90
4787;DHT22;62338;48.832;9.422;2023-08-08T06:58:36;15.90;99.90
4787;DHT22;62338;48.832;9.422;2023-08-08T07:00:37;16.10;99.90
4787;DHT22;62338;48.832;9.422;2023-08-08T07:02:39;16.40;99.90
4787;DHT22;62338;48.832;9.422;2023-08-08T07:04:41;16.90;99.90
4787;DHT22;62338;48.832;9.422;2023-08-08T07:06:44;17.60;99.90
4787;DHT22;62338;48.832;9.422;2023-08-08T07:08:48;18.40;99.90
4787;DHT22;62338;48.832;9.422;2023-08-08T07:10:50;19.50;99.90
4787;DHT22;62338;48.832;9.422;2023-08-08T07:12:53;20.20;99.90
4787;DHT22;62338;48.832;9.422;2023-08-08T07:14:55;20.80;99.90
4787;DHT22;62338;48.832;9.422;2023-08-08T07:16:57;21.30;99.90
4787;DHT22;62338;48.832;9.422;2023-08-08T07:18:59;21.90;99.90
4787;DHT22;62338;48.832;9.422;2023-08-08T07:21:01;22.10;98.90
4787;DHT22;62338;48.832;9.422;2023-08-08T07:23:03;22.20;98.70
4787;DHT22;62338;48.832;9.422;2023-08-08T07:25:05;22.60;97.60
4787;DHT22;62338;48.832;9.422;2023-08-08T07:27:07;22.40;97.00
4787;DHT22;62338;48.832;9.422;2023-08-08T07:29:09;22.20;97.50
4787;DHT22;62338;48.832;9.422;2023-08-08T07:31:11;21.70;97.50
4787;DHT22;62338;48.832;9.422;2023-08-08T07:33:13;21.30;98.20
4787;DHT22;62338;48.832;9.422;2023-08-08T07:35:15;21.00;97.30
4787;DHT22;62338;48.832;9.422;2023-08-08T07:37:17;20.80;99.90
4787;DHT22;62338;48.832;9.422;2023-08-08T07:39:19;21.10;99.90
4787;DHT22;62338;48.832;9.422;2023-08-08T07:41:21;21.40;97.40
4787;DHT22;62338;48.832;9.422;2023-08-08T07:43:25;21.90;97.00
4787;DHT22;62338;48.832;9.422;2023-08-08T07:45:29;22.20;96.40
4787;DHT22;62338;48.832;9.422;2023-08-08T07:47:31;22.10;95.70
4787;DHT22;62338;48.832;9.422;2023-08-08T07:49:33;22.30;97.10
4787;DHT22;62338;48.832;9.422;2023-08-08T07:51:35;23.00;95.20
4787;DHT22;62338;48.832;9.422;2023-08-08T07:53:37;23.50;93.20
4787;DHT22;62338;48.832;9.422;2023-08-08T07:55:39;23.70;93.20
4787;DHT22;62338;48.832;9.422;2023-08-08T07:57:40;23.70;91.90
4787;DHT22;62338;48.832;9.422;2023-08-08T07:59:42;23.90;93.30
4787;DHT22;62338;48.832;9.422;2023-08-08T08:01:44;24.10;91.50
4787;DHT22;62338;48.832;9.422;2023-08-08T08:03:46;24.30;92.00
4787;DHT22;62338;48.832;9.422;2023-08-08T08:05:48;25.00;89.90
4787;DHT22;62338;48.832;9.422;2023-08-08T08:07:50;25.00;87.50
4787;DHT22;62338;48.832;9.422;2023-08-08T08:09:51;24.30;89.80
4787;DHT22;62338;48.832;9.422;2023-08-08T08:11:53;24.10;90.80
4787;DHT22;62338;48.832;9.422;2023-08-08T08:13:55;23.80;89.80
4787;DHT22;62338;48.832;9.422;2023-08-08T08:15:57;23.70;91.70
4787;DHT22;62338;48.832;9.422;2023-08-08T08:17:59;23.50;91.30
4787;DHT22;62338;48.832;9.422;2023-08-08T08:20:01;23.20;92.50
4787;DHT22;62338;48.832;9.422;2023-08-08T08:22:10;22.90;93.90
4787;DHT22;62338;48.832;9.422;2023-08-08T08:24:12;22.70;95.00
4787;DHT22;62338;48.832;9.422;2023-08-08T08:26:14;21.70;92.10
4787;DHT22;62338;48.832;9.422;2023-08-08T08:28:16;21.00;94.40
4787;DHT22;62338;48.832;9.422;2023-08-08T08:30:18;20.30;95.80
4787;DHT22;62338;48.832;9.422;2023-08-08T08:32:21;19.90;97.10
4787;DHT22;62338;48.832;9.422;2023-08-08T08:34:22;19.80;96.10
4787;DHT22;62338;48.832;9.422;2023-08-08T08:36:24;20.00;96.00
4787;DHT22;62338;48.832;9.422;2023-08-08T08:38:27;20.10;96.80
4787;DHT22;62338;48.832;9.422;2023-08-08T08:40:33;20.00;97.10
4787;DHT22;62338;48.832;9.422;2023-08-08T08:42:39;19.60;96.10
4787;DHT22;62338;48.832;9.422;2023-08-08T08:44:42;19.50;98.20
4787;DHT22;62338;48.832;9.422;2023-08-08T08:46:46;19.80;95.70
4787;DHT22;62338;48.832;9.422;2023-08-08T08:48:51;20.30;97.30
4787;DHT22;62338;48.832;9.422;2023-08-08T08:50:53;21.10;97.30
4787;DHT22;62338;48.832;9.422;2023-08-08T08:52:55;21.30;95.10
4787;DHT22;62338;48.832;9.422;2023-08-08T08:54:58;21.80;95.90
4787;DHT22;62338;48.832;9.422;2023-08-08T08:57:00;21.60;93.00
4787;DHT22;62338;48.832;9.422;2023-08-08T08:59:02;21.60;93.70
4787;DHT22;62338;48.832;9.422;2023-08-08T09:01:04;22.00;93.20
4787;DHT22;62338;48.832;9.422;2023-08-08T09:03:06;22.60;95.00
4787;DHT22;62338;48.832;9.422;2023-08-08T09:05:08;22.90;90.70
4787;DHT22;62338;48.832;9.422;2023-08-08T09:07:11;23.00;90.80
4787;DHT22;62338;48.832;9.422;2023-08-08T09:09:13;22.90;91.70
4787;DHT22;62338;48.832;9.422;2023-08-08T09:11:18;23.20;91.80
4787;DHT22;62338;48.832;9.422;2023-08-08T09:13:19;23.20;86.70
4787;DHT22;62338;48.832;9.422;2023-08-08T09:15:22;23.20;89.70
4787;DHT22;62338;48.832;9.422;2023-08-08T09:17:27;23.00;90.40
4787;DHT22;62338;48.832;9.422;2023-08-08T09:19:48;22.70;87.30
4787;DHT22;62338;48.832;9.422;2023-08-08T09:21:51;22.30;90.30
4787;DHT22;62338;48.832;9.422;2023-08-08T09:23:53;22.80;89.00
4787;DHT22;62338;48.832;9.422;2023-08-08T09:25:55;23.00;89.40
4787;DHT22;62338;48.832;9.422;2023-08-08T09:27:57;23.00;88.70
4787;DHT22;62338;48.832;9.422;2023-08-08T09:29:59;22.80;86.30
4787;DHT22;62338;48.832;9.422;2023-08-08T09:32:03;22.20;86.10
4787;DHT22;62338;48.832;9.422;2023-08-08T09:34:05;22.20;90.00
4787;DHT22;62338;48.832;9.422;2023-08-08T09:36:07;22.00;90.50
4787;DHT22;62338;48.832;9.422;2023-08-08T09:38:09;21.20;90.80
4787;DHT22;62338;48.832;9.422;2023-08-08T09:40:11;21.00;90.90
4787;DHT22;62338;48.832;9.422;2023-08-08T09:42:13;21.20;93.20
4787;DHT22;62338;48.832;9.422;2023-08-08T09:44:15;21.40;90.80
4787;DHT22;62338;48.832;9.422;2023-08-08T09:46:21;21.50;91.60
4787;DHT22;62338;48.832;9.422;2023-08-08T09:48:25;21.50;90.30
4787;DHT22;62338;48.832;9.422;2023-08-08T09:50:31;21.30;91.60
4787;DHT22;62338;48.832;9.422;2023-08-08T09:52:34;21.40;91.10
4787;DHT22;62338;48.832;9.422;2023-08-08T09:54:38;22.40;91.60
4787;DHT22;62338;48.832;9.422;2023-08-08T09:56:40;23.20;86.70
4787;DHT22;62338;48.832;9.422;2023-08-08T09:58:43;23.20;87.90
4787;DHT22;62338;48.832;9.422;2023-08-08T10:00:45;23.50;88.60
4787;DHT22;62338;48.832;9.422;2023-08-08T10:02:47;23.60;85.70
4787;DHT22;62338;48.832;9.422;2023-08-08T10:04:49;23.10;88.80
4787;DHT22;62338;48.832;9.422;2023-08-08T10:06:51;22.70;87.50
4787;DHT22;62338;48.832;9.422;2023-08-08T10:08:53;22.90;87.10
4787;DHT22;62338;48.832;9.422;2023-08-08T10:10:55;23.30;85.90
4787;DHT22;62338;48.832;9.422;2023-08-08T10:12:57;23.50;86.60
4787;DHT22;62338;48.832;9.422;2023-08-08T10:15:00;23.00;90.80
4787;DHT22;62338;48.832;9.422;2023-08-08T10:17:03;23.30;86.40
4787;DHT22;62338;48.832;9.422;2023-08-08T10:19:05;23.20;86.20
4787;DHT22;62338;48.832;9.422;2023-08-08T10:21:07;22.50;86.40
4787;DHT22;62338;48.832;9.422;2023-08-08T10:23:11;21.60;87.20
4787;DHT22;62338;48.832;9.422;2023-08-08T10:25:34;21.30;90.10
4787;DHT22;62338;48.832;9.422;2023-08-08T10:27:37;22.00;90.90
4787;DHT22;62338;48.832;9.422;2023-08-08T10:29:40;22.70;87.50
4787;DHT22;62338;48.832;9.422;2023-08-08T10:31:57;22.60;81.40
4787;DHT22;62338;48.832;9.422;2023-08-08T10:34:04;22.50;84.80
4787;DHT22;62338;48.832;9.422;2023-08-08T10:36:08;22.30;82.00
4787;DHT22;62338;48.832;9.422;2023-08-08T10:38:10;22.60;89.80
4787;DHT22;62338;48.832;9.422;2023-08-08T10:40:17;23.00;85.10
4787;DHT22;62338;48.832;9.422;2023-08-08T10:42:20;23.10;85.00
4787;DHT22;62338;48.832;9.422;2023-08-08T10:44:24;23.10;82.30
4787;DHT22;62338;48.832;9.422;2023-08-08T10:46:32;23.30;84.30
4787;DHT22;62338;48.832;9.422;2023-08-08T10:48:50;24.20;83.00
4787;DHT22;62338;48.832;9.422;2023-08-08T10:50:55;24.70;80.10
4787;DHT22;62338;48.832;9.422;2023-08-08T10:52:59;24.50;81.50
4787;DHT22;62338;48.832;9.422;2023-08-08T10:55:02;24.60;78.50
4787;DHT22;62338;48.832;9.422;2023-08-08T10:57:04;25.10;77.80
4787;DHT22;62338;48.832;9.422;2023-08-08T10:59:20;25.50;76.50
4787;DHT22;62338;48.832;9.422;2023-08-08T11:01:25;25.70;78.70
4787;DHT22;62338;48.832;9.422;2023-08-08T11:03:29;26.00;74.60
4787;DHT22;62338;48.832;9.422;2023-08-08T11:05:32;26.20;70.20
4787;DHT22;62338;48.832;9.422;2023-08-08T11:07:35;25.80;69.80
4787;DHT22;62338;48.832;9.422;2023-08-08T11:09:38;25.90;71.00
4787;DHT22;62338;48.832;9.422;2023-08-08T11:11:42;25.60;69.30
4787;DHT22;62338;48.832;9.422;2023-08-08T11:13:44;25.40;67.10
4787;DHT22;62338;48.832;9.422;2023-08-08T11:15:46;25.70;69.70
4787;DHT22;62338;48.832;9.422;2023-08-08T11:17:49;25.80;69.80
4787;DHT22;62338;48.832;9.422;2023-08-08T11:19:51;25.80;63.90
4787;DHT22;62338;48.832;9.422;2023-08-08T11:21:52;25.80;63.80
4787;DHT22;62338;48.832;9.422;2023-08-08T11:23:54;25.80;65.20
4787;DHT22;62338;48.832;9.422;2023-08-08T11:25:57;26.10;63.50
4787;DHT22;62338;48.832;9.422;2023-08-08T11:28:03;25.70;64.30
4787;DHT22;62338;48.832;9.422;2023-08-08T11:30:05;25.60;69.70
4787;DHT22;62338;48.832;9.422;2023-08-08T11:32:10;25.90;65.70
4787;DHT22;62338;48.832;9.422;2023-08-08T11:34:15;25.50;64.80
4787;DHT22;62338;48.832;9.422;2023-08-08T11:36:17;25.20;66.90
4787;DHT22;62338;48.832;9.422;2023-08-08T11:38:20;24.80;63.10
4787;DHT22;62338;48.832;9.422;2023-08-08T11:40:23;24.60;68.60
4787;DHT22;62338;48.832;9.422;2023-08-08T11:42:26;23.80;66.00
4787;DHT22;62338;48.832;9.422;2023-08-08T11:44:28;23.60;68.40
4787;DHT22;62338;48.832;9.422;2023-08-08T11:46:30;24.00;66.00
4787;DHT22;62338;48.832;9.422;2023-08-08T11:48:33;24.40;65.70
4787;DHT22;62338;48.832;9.422;2023-08-08T11:50:37;24.00;62.40
4787;DHT22;62338;48.832;9.422;2023-08-08T11:52:43;23.80;63.60
4787;DHT22;62338;48.832;9.422;2023-08-08T11:54:53;23.80;63.90
4787;DHT22;62338;48.832;9.422;2023-08-08T11:56:54;24.30;68.00
4787;DHT22;62338;48.832;9.422;2023-08-08T11:58:56;24.70;65.20
4787;DHT22;62338;48.832;9.422;2023-08-08T12:00:58;24.80;61.40
4787;DHT22;62338;48.832;9.422;2023-08-08T12:03:01;24.80;66.20
4787;DHT22;62338;48.832;9.422;2023-08-08T12:05:11;25.00;63.40
4787;DHT22;62338;48.832;9.422;2023-08-08T12:07:13;25.40;68.70
4787;DHT22;62338;48.832;9.422;2023-08-08T12:09:14;25.80;65.40
4787;DHT22;62338;48.832;9.422;2023-08-08T12:11:16;25.90;65.30
4787;DHT22;62338;48.832;9.422;2023-08-08T12:13:22;26.00;64.00
4787;DHT22;62338;48.832;9.422;2023-08-08T12:15:29;25.60;62.30
4787;DHT22;62338;48.832;9.422;2023-08-08T12:17:31;25.50;63.70
4787;DHT22;62338;48.832;9.422;2023-08-08T12:19:33;25.60;65.80
4787;DHT22;62338;48.832;9.422;2023-08-08T12:21:35;25.40;64.60
4787;DHT22;62338;48.832;9.422;2023-08-08T12:23:37;24.60;62.70
4787;DHT22;62338;48.832;9.422;2023-08-08T12:25:39;24.90;62.90
4787;DHT22;62338;48.832;9.422;2023-08-08T12:27:41;25.40;63.90
4787;DHT22;62338;48.832;9.422;2023-08-08T12:29:42;25.80;64.20
4787;DHT22;62338;48.832;9.422;2023-08-08T12:31:44;25.60;59.40
4787;DHT22;62338;48.832;9.422;2023-08-08T12:33:46;24.70;60.00
4787;DHT22;62338;48.832;9.422;2023-08-08T12:35:50;24.00;64.90
4787;DHT22;62338;48.832;9.422;2023-08-08T12:37:52;23.60;64.00
4787;DHT22;62338;48.832;9.422;2023-08-08T12:39:54;23.30;64.50
4787;DHT22;62338;48.832;9.422;2023-08-08T12:41:56;23.50;66.60
4787;DHT22;62338;48.832;9.422;2023-08-08T12:43:58;23.90;61.00
4787;DHT22;62338;48.832;9.422;2023-08-08T12:46:00;24.00;60.30
4787;DHT22;62338;48.832;9.422;2023-08-08T12:48:02;24.00;60.70
4787;DHT22;62338;48.832;9.422;2023-08-08T12:50:07;24.30;63.20
4787;DHT22;62338;48.832;9.422;2023-08-08T12:52:09;24.30;64.80
4787;DHT22;62338;48.832;9.422;2023-08-08T12:54:11;24.20;65.20
4787;DHT22;62338;48.832;9.422;2023-08-08T12:56:13;24.50;68.00
4787;DHT22;62338;48.832;9.422;2023-08-08T12:58:14;24.80;63.40
4787;DHT22;62338;48.832;9.422;2023-08-08T13:00:16;24.70;64.30
4787;DHT22;62338;48.832;9.422;2023-08-08T13:02:18;24.00;66.40
4787;DHT22;62338;48.832;9.422;2023-08-08T13:04:20;23.70;67.90
4787;DHT22;62338;48.832;9.422;2023-08-08T13:06:22;24.30;68.40
4787;DHT22;62338;48.832;9.422;2023-08-08T13:08:24;25.00;66.70